Lagoa da Prata, Brazil
Current Conditions -  °F | °C
As of 12:00 PM on Monday 26 Jan 2015 (Local Time) from SBBH Reporting Station
Scattered Clouds Scattered Clouds  
Wind Chill: 82°   Ceiling: Unl
Heat Index: 83°   Visibility: 6mi
Dew Point: 61°   Wind: 3mph
Humidity: 48%   Direction: 50°NE
Pressure: 30.09"   Gusts: NA
Location:  20.02°S, 45.54°W
Report Text: SBBH 261400Z 05003KT 9999 SCT040 28/16 Q1019
Loading
Personal Weather Stations






























Interactive Weather Map New forecast layout! Learn more

10-Day Weather Forecast

Advertisements
Track Severe Weather on mobile